createdAt,value
2019-06-07T00:00:37.289Z,8.43
2019-06-07T00:01:22.717Z,8.27
2019-06-07T00:02:27.556Z,8.57
2019-06-07T00:03:31.983Z,8.57
2019-06-07T00:04:36.792Z,9.07
2019-06-07T00:05:41.009Z,9.40
2019-06-07T00:06:45.807Z,9.50
2019-06-07T00:07:50.076Z,9.43
2019-06-07T00:08:54.872Z,8.80
2019-06-07T00:09:59.087Z,9.40
2019-06-07T00:11:03.892Z,9.07
2019-06-07T00:12:09.572Z,9.40
2019-06-07T00:13:17.116Z,9.37
2019-06-07T00:14:21.188Z,9.67
2019-06-07T00:15:29.032Z,9.10
2019-06-07T00:16:32.119Z,9.57
2019-06-07T00:17:36.928Z,9.37
2019-06-07T00:18:41.175Z,9.47
2019-06-07T00:19:45.983Z,10.17
2019-06-07T00:20:50.216Z,9.67
2019-06-07T00:23:00.892Z,9.53
2019-06-07T00:24:05.875Z,9.77
2019-06-07T00:25:14.689Z,10.17
2019-06-07T00:26:19.174Z,10.33
2019-06-07T00:27:22.786Z,10.43
2019-06-07T00:28:27.770Z,9.70
2019-06-07T00:29:31.991Z,10.60
2019-06-07T00:30:50.863Z,9.30
2019-06-07T00:31:42.672Z,10.27
2019-06-07T00:32:47.493Z,9.70
2019-06-07T00:33:51.744Z,9.17
2019-06-07T00:34:56.558Z,10.27
2019-06-07T00:36:00.786Z,11.23
2019-06-07T00:37:07.036Z,9.83
2019-06-07T00:38:11.904Z,11.20
2019-06-07T00:39:20.283Z,10.47
2019-06-07T00:40:31.460Z,10.40
2019-06-07T00:41:29.351Z,9.60
2019-06-07T00:42:33.573Z,10.03
2019-06-07T00:43:38.382Z,10.53
2019-06-07T00:44:42.634Z,9.90
2019-06-07T00:45:47.449Z,10.03
2019-06-07T00:46:51.680Z,10.50
2019-06-07T00:47:56.491Z,10.63
2019-06-07T00:49:00.812Z,11.03
2019-06-07T00:50:05.677Z,11.10
2019-06-07T00:51:11.261Z,10.50
2019-06-07T00:53:05.614Z,10.50
2019-06-07T00:53:31.881Z,9.97
2019-06-07T00:54:28.784Z,10.40
2019-06-07T00:55:33.004Z,10.53
2019-06-07T00:56:37.822Z,9.60
2019-06-07T00:57:42.059Z,10.50
2019-06-07T00:58:46.868Z,10.40
2019-06-07T00:59:51.144Z,10.53
2019-06-07T01:00:55.947Z,11.07
2019-06-07T01:02:03.241Z,10.40
2019-06-07T01:03:08.056Z,11.27
2019-06-07T01:04:13.149Z,11.47
2019-06-07T01:05:22.581Z,11.30
2019-06-07T01:06:24.903Z,12.60
2019-06-07T01:07:30.101Z,12.07
2019-06-07T01:08:34.322Z,11.77
2019-06-07T01:09:39.249Z,10.97
2019-06-07T01:10:58.820Z,11.87
2019-06-07T01:11:50.196Z,12.10
2019-06-07T01:12:54.465Z,12.07
2019-06-07T01:13:59.332Z,12.73
2019-06-07T01:15:03.632Z,11.57
2019-06-07T01:16:08.480Z,11.97
2019-06-07T01:17:27.606Z,11.80
2019-06-07T01:18:46.185Z,11.80
2019-06-07T01:19:30.785Z,11.17
2019-06-07T01:20:35.607Z,11.43
2019-06-07T01:21:39.863Z,12.77
2019-06-07T01:22:44.682Z,12.93
2019-06-07T01:24:08.740Z,11.47
2019-06-07T01:24:55.393Z,12.23
2019-06-07T01:25:59.607Z,12.07
2019-06-07T01:27:04.451Z,13.13
2019-06-07T01:28:08.672Z,12.83
2019-06-07T01:29:13.475Z,12.73
2019-06-07T01:30:18.770Z,12.47
2019-06-07T01:31:27.616Z,12.27
2019-06-07T01:32:31.725Z,11.73
2019-06-07T01:33:50.316Z,12.27
2019-06-07T01:34:42.736Z,11.43
2019-06-07T01:35:47.543Z,11.83
2019-06-07T01:36:51.788Z,11.37
2019-06-07T01:37:56.608Z,12.13
2019-06-07T01:39:00.840Z,12.03
2019-06-07T01:40:05.884Z,12.27
2019-06-07T01:41:10.107Z,11.83
2019-06-07T01:42:14.920Z,11.20
2019-06-07T01:43:21.925Z,12.17
2019-06-07T01:44:28.038Z,12.97
2019-06-07T01:45:31.520Z,12.10
2019-06-07T01:46:36.317Z,12.60
2019-06-07T01:47:40.692Z,12.73
2019-06-07T01:48:49.387Z,12.97
2019-06-07T01:49:51.384Z,12.23
2019-06-07T01:50:56.216Z,12.13
2019-06-07T01:52:00.775Z,12.27
2019-06-07T01:53:05.581Z,12.63
2019-06-07T01:55:18.580Z,11.97
2019-06-07T01:56:24.454Z,13.20
2019-06-07T01:57:44.947Z,12.57
2019-06-07T01:58:34.516Z,13.70
2019-06-07T01:59:39.347Z,13.67
2019-06-07T02:00:44.375Z,13.03
2019-06-07T02:01:49.228Z,12.87
2019-06-07T02:02:53.453Z,11.90
2019-06-07T02:03:58.267Z,12.57
2019-06-07T02:05:02.518Z,12.63
2019-06-07T02:06:07.364Z,13.33
2019-06-07T02:07:11.592Z,13.23
2019-06-07T02:08:16.405Z,13.90
2019-06-07T02:09:20.875Z,13.10
2019-06-07T02:10:29.888Z,13.30
2019-06-07T02:11:32.009Z,12.87
2019-06-07T02:12:43.188Z,13.50
2019-06-07T02:13:44.156Z,14.50
2019-06-07T02:14:48.966Z,14.20
2019-06-07T02:15:53.268Z,13.93
2019-06-07T02:16:58.082Z,13.57
2019-06-07T02:18:02.348Z,13.20
2019-06-07T02:19:07.177Z,14.20
2019-06-07T02:20:11.452Z,15.23
2019-06-07T02:21:16.342Z,14.03
2019-06-07T02:22:22.896Z,13.53
2019-06-07T02:23:28.296Z,12.87
2019-06-07T02:24:35.772Z,14.97
2019-06-07T02:25:49.584Z,14.17
2019-06-07T02:26:45.724Z,14.20
2019-06-07T02:27:50.531Z,13.40
2019-06-07T02:28:54.751Z,14.77
2019-06-07T02:29:59.562Z,14.47
2019-06-07T02:31:03.816Z,12.80
2019-06-07T02:32:08.617Z,12.87
2019-06-07T02:33:12.853Z,13.17
2019-06-07T02:34:17.668Z,14.00
2019-06-07T02:35:25.641Z,14.73
2019-06-07T02:36:33.219Z,14.33
2019-06-07T02:37:36.933Z,13.20
2019-06-07T02:38:40.814Z,13.20
2019-06-07T02:39:45.029Z,14.43
2019-06-07T02:40:49.943Z,14.17
2019-06-07T02:41:54.269Z,14.90
2019-06-07T02:42:59.138Z,14.57
2019-06-07T02:44:03.367Z,15.83
2019-06-07T02:45:10.659Z,16.03
2019-06-07T02:46:34.263Z,15.80
2019-06-07T02:47:35.924Z,15.50
2019-06-07T02:48:40.200Z,14.93
2019-06-07T02:49:44.582Z,15.03
2019-06-07T02:50:49.284Z,15.27
2019-06-07T02:51:54.148Z,15.47
2019-06-07T02:52:58.441Z,15.63
2019-06-07T02:54:03.245Z,16.00
2019-06-07T02:55:07.465Z,16.40
2019-06-07T02:56:37.848Z,15.70
2019-06-07T02:57:18.179Z,15.67
2019-06-07T02:58:26.034Z,14.67
2019-06-07T02:59:56.798Z,15.50
2019-06-07T03:01:06.938Z,14.80
2019-06-07T03:01:59.584Z,15.13
2019-06-07T03:03:04.401Z,15.27
2019-06-07T03:04:08.752Z,14.97
2019-06-07T03:05:13.576Z,14.83
2019-06-07T03:06:17.802Z,15.93
2019-06-07T03:07:22.668Z,16.10
2019-06-07T03:08:28.247Z,15.13
2019-06-07T03:09:34.986Z,15.90
2019-06-07T03:10:41.853Z,16.30
2019-06-07T03:11:45.609Z,15.77
2019-06-07T03:12:49.939Z,15.93
2019-06-07T03:13:54.780Z,15.60
2019-06-07T03:14:59.049Z,14.53
2019-06-07T03:16:04.882Z,14.83
2019-06-07T03:17:18.732Z,16.03
2019-06-07T03:18:41.665Z,14.87
2019-06-07T03:19:47.273Z,15.10
2019-06-07T03:21:04.921Z,15.37
2019-06-07T03:21:57.956Z,16.03
2019-06-07T03:23:02.982Z,15.97
2019-06-07T03:24:07.204Z,15.53
2019-06-07T03:25:12.028Z,14.97
2019-06-07T03:26:16.338Z,15.80
2019-06-07T03:27:34.865Z,16.43
2019-06-07T03:28:27.639Z,16.00
2019-06-07T03:29:34.422Z,14.50
2019-06-07T03:30:52.131Z,15.63
2019-06-07T03:31:47.405Z,15.33
2019-06-07T03:32:52.124Z,15.90
2019-06-07T03:33:57.236Z,16.60
2019-06-07T03:35:01.511Z,15.10
2019-06-07T03:36:22.648Z,14.50
2019-06-07T03:37:12.365Z,16.40
2019-06-07T03:38:17.203Z,15.57
2019-06-07T03:39:21.440Z,16.07
2019-06-07T03:40:26.707Z,15.37
2019-06-07T03:41:36.960Z,15.97
2019-06-07T03:42:39.757Z,15.70
2019-06-07T03:43:43.338Z,15.33
2019-06-07T03:44:48.141Z,15.37
2019-06-07T03:45:52.369Z,14.10
2019-06-07T03:46:57.188Z,14.13
2019-06-07T03:48:01.473Z,15.00
2019-06-07T03:49:06.287Z,16.07
2019-06-07T03:50:10.585Z,14.77
2019-06-07T03:51:24.549Z,15.63
2019-06-07T03:52:21.285Z,15.93
2019-06-07T03:53:29.226Z,15.47
2019-06-07T03:54:32.137Z,15.07
2019-06-07T03:55:41.187Z,15.37
2019-06-07T03:56:44.327Z,14.30
2019-06-07T03:58:55.033Z,13.07
2019-06-07T03:59:59.848Z,14.07
2019-06-07T04:01:04.448Z,14.33
2019-06-07T04:02:10.509Z,13.03
2019-06-07T04:03:33.005Z,13.63
2019-06-07T04:04:21.212Z,13.93
2019-06-07T04:05:25.453Z,14.73
2019-06-07T04:06:32.553Z,13.67
2019-06-07T04:07:39.303Z,13.83
2019-06-07T04:08:42.678Z,14.00
2019-06-07T04:09:48.389Z,13.17
2019-06-07T04:11:00.055Z,13.13
2019-06-07T04:11:59.083Z,14.17
2019-06-07T04:13:03.920Z,14.03
2019-06-07T04:14:08.177Z,13.20
2019-06-07T04:15:12.981Z,14.27
2019-06-07T04:16:17.264Z,14.33
2019-06-07T04:17:22.119Z,13.70
2019-06-07T04:18:26.354Z,13.37
2019-06-07T04:19:32.217Z,13.37
2019-06-07T04:20:40.701Z,13.23
2019-06-07T04:21:43.511Z,13.93
2019-06-07T04:22:47.732Z,13.13
2019-06-07T04:23:52.568Z,14.33
2019-06-07T04:24:56.787Z,12.47
2019-06-07T04:26:01.596Z,12.90
2019-06-07T04:27:06.164Z,12.57
2019-06-07T04:28:11.016Z,13.67
2019-06-07T04:29:35.640Z,12.87
2019-06-07T04:30:43.643Z,13.33
2019-06-07T04:31:47.864Z,13.27
2019-06-07T04:32:52.749Z,12.97
2019-06-07T04:33:57.003Z,13.97
2019-06-07T04:35:01.820Z,13.67
2019-06-07T04:36:06.071Z,14.07
2019-06-07T04:37:11.280Z,14.50
2019-06-07T04:38:15.531Z,14.07
2019-06-07T04:39:20.349Z,14.10
2019-06-07T04:40:24.662Z,14.00
2019-06-07T04:41:30.899Z,13.53
2019-06-07T04:42:39.169Z,13.90
2019-06-07T04:43:42.856Z,13.13
2019-06-07T04:44:47.228Z,13.07
2019-06-07T04:45:52.415Z,14.10
2019-06-07T04:46:57.288Z,12.73
2019-06-07T04:48:02.217Z,13.43
2019-06-07T04:49:06.469Z,13.03
2019-06-07T04:50:12.016Z,14.10
2019-06-07T04:51:16.274Z,13.83
2019-06-07T04:52:21.075Z,12.97
2019-06-07T04:53:25.318Z,13.40
2019-06-07T04:54:31.438Z,12.33
2019-06-07T04:55:38.622Z,13.53
2019-06-07T04:56:44.532Z,13.47
2019-06-07T04:57:48.417Z,12.67
2019-06-07T04:58:53.252Z,13.73
2019-06-07T05:00:32.907Z,13.93
2019-06-07T05:01:03.990Z,12.60
2019-06-07T05:02:08.223Z,13.20
2019-06-07T05:03:13.040Z,12.50
2019-06-07T05:04:17.323Z,12.97
2019-06-07T05:05:22.145Z,12.83
2019-06-07T05:06:26.371Z,12.63
2019-06-07T05:07:32.563Z,12.33
2019-06-07T05:08:40.569Z,13.63
2019-06-07T05:09:47.139Z,12.70
2019-06-07T05:10:51.128Z,13.27
2019-06-07T05:11:55.940Z,12.73
2019-06-07T05:13:00.220Z,23.53
2019-06-07T05:14:05.028Z,13.73
2019-06-07T05:15:09.273Z,16.77
2019-06-07T05:16:14.116Z,13.70
2019-06-07T05:17:18.343Z,13.00
2019-06-07T05:18:23.160Z,11.93
2019-06-07T05:19:27.458Z,22.10
2019-06-07T05:20:33.627Z,12.33
2019-06-07T05:21:58.399Z,14.30
2019-06-07T05:22:45.430Z,25.90
2019-06-07T05:24:06.612Z,12.20
2019-06-07T05:24:56.247Z,10.10
2019-06-07T05:26:00.506Z,9.60
2019-06-07T05:27:05.296Z,34.23
2019-06-07T05:28:09.508Z,25.20
2019-06-07T05:29:14.323Z,17.67
2019-06-07T05:31:47.091Z,14.25
2019-06-07T05:32:51.476Z,9.68
2019-06-07T05:33:56.284Z,9.35
2019-06-07T05:35:00.644Z,12.20
2019-06-07T05:36:05.439Z,14.68
2019-06-07T05:37:11.967Z,12.73
2019-06-07T05:38:16.132Z,13.68
2019-06-07T05:39:20.347Z,36.95
2019-06-07T05:40:34.882Z,10.78
2019-06-07T05:41:43.793Z,10.63
2019-06-07T05:42:46.873Z,12.05
2019-06-07T05:44:11.202Z,10.75
2019-06-07T05:44:57.704Z,11.38
2019-06-07T05:46:01.969Z,10.95
2019-06-07T05:47:06.813Z,10.28
2019-06-07T05:48:11.024Z,10.88
2019-06-07T05:49:15.830Z,10.98
2019-06-07T05:50:39.228Z,23.83
2019-06-07T05:51:26.588Z,31.37
2019-06-07T05:52:30.817Z,19.20
2019-06-07T05:53:38.493Z,30.00
2019-06-07T05:54:43.191Z,16.70
2019-06-07T05:55:48.030Z,50.95
2019-06-07T05:56:52.247Z,15.70
2019-06-07T05:57:57.081Z,24.50
2019-06-07T05:59:01.343Z,29.95
2019-06-07T06:00:06.782Z,12.23
2019-06-07T06:01:42.254Z,11.73
2019-06-07T06:02:22.502Z,11.95
2019-06-07T06:03:23.324Z,12.05
2019-06-07T06:04:28.224Z,11.10
2019-06-07T06:05:37.633Z,11.50
2019-06-07T06:06:43.130Z,11.75
2019-06-07T06:07:50.290Z,11.22
2019-06-07T06:08:51.467Z,10.80
2019-06-07T06:09:55.698Z,11.60
2019-06-07T06:11:00.540Z,10.82
2019-06-07T06:12:05.087Z,10.20
2019-06-07T06:13:09.902Z,10.45
2019-06-07T06:14:14.128Z,11.30
2019-06-07T06:15:19.025Z,11.03
2019-06-07T06:16:23.468Z,11.95
2019-06-07T06:17:28.319Z,11.12
2019-06-07T06:18:32.543Z,10.50
2019-06-07T06:19:39.744Z,10.80
2019-06-07T06:21:05.266Z,10.95
2019-06-07T06:21:49.909Z,10.95
2019-06-07T06:22:54.140Z,11.88
2019-06-07T06:23:59.057Z,11.70
2019-06-07T06:26:09.912Z,11.12
2019-06-07T06:27:41.813Z,11.05
2019-06-07T06:28:20.608Z,10.08
2019-06-07T06:29:24.841Z,10.82
2019-06-07T06:30:29.659Z,10.90
2019-06-07T06:31:33.948Z,10.95
2019-06-07T06:32:42.933Z,10.90
2019-06-07T06:33:45.289Z,10.60
2019-06-07T06:34:54.059Z,11.00
2019-06-07T06:35:57.060Z,10.98
2019-06-07T06:37:01.906Z,10.30
2019-06-07T06:38:06.138Z,8.95
2019-06-07T06:39:10.976Z,9.70
2019-06-07T06:40:15.202Z,9.43
2019-06-07T06:41:21.089Z,9.38
2019-06-07T06:42:25.465Z,9.30
2019-06-07T06:43:30.277Z,9.90
2019-06-07T06:44:34.536Z,9.30
2019-06-07T06:45:40.192Z,8.73
2019-06-07T06:46:48.999Z,9.50
2019-06-07T06:47:50.928Z,9.08
2019-06-07T06:48:55.794Z,9.00
2019-06-07T06:50:01.769Z,9.00
2019-06-07T06:51:05.980Z,8.53
2019-06-07T06:52:10.812Z,8.90
2019-06-07T06:53:15.024Z,8.98
2019-06-07T06:54:39.567Z,8.48
2019-06-07T06:55:25.700Z,8.35
2019-06-07T06:56:30.496Z,7.70
2019-06-07T06:57:34.757Z,8.28
2019-06-07T06:59:21.707Z,8.10
2019-06-07T06:59:47.922Z,8.78
2019-06-07T07:01:05.349Z,8.50
2019-06-07T07:01:57.994Z,9.25
2019-06-07T07:03:47.337Z,8.68
2019-06-07T07:04:12.772Z,8.53
2019-06-07T07:05:15.955Z,9.08
2019-06-07T07:06:26.424Z,7.95
2019-06-07T07:07:28.001Z,8.90
2019-06-07T07:08:32.204Z,8.48
2019-06-07T07:09:37.364Z,7.97
2019-06-07T07:10:43.063Z,8.68
2019-06-07T07:12:08.955Z,8.53
2019-06-07T07:12:54.040Z,8.30
2019-06-07T07:13:58.858Z,7.83
2019-06-07T07:15:03.136Z,7.80
2019-06-07T07:16:07.964Z,8.28
2019-06-07T07:17:12.211Z,8.53
2019-06-07T07:18:17.025Z,7.97
2019-06-07T07:19:21.243Z,7.92
2019-06-07T07:20:26.097Z,8.65
2019-06-07T07:21:30.328Z,8.28
2019-06-07T07:22:35.132Z,8.23
2019-06-07T07:23:39.361Z,8.53
2019-06-07T07:24:44.504Z,8.03
2019-06-07T07:25:57.322Z,8.85
2019-06-07T07:26:58.300Z,8.15
2019-06-07T07:28:01.351Z,9.75
2019-06-07T07:29:06.188Z,8.98
2019-06-07T07:30:35.932Z,9.25
2019-06-07T07:31:16.880Z,8.85
2019-06-07T07:32:21.159Z,9.88
2019-06-07T07:33:25.934Z,10.08
2019-06-07T07:34:36.022Z,11.28
2019-06-07T07:35:36.633Z,11.05
2019-06-07T07:36:40.888Z,10.98
2019-06-07T07:37:48.930Z,9.40
2019-06-07T07:39:00.487Z,10.25
2019-06-07T07:40:09.543Z,11.25
2019-06-07T07:41:14.582Z,10.18
2019-06-07T07:42:20.599Z,10.45
2019-06-07T07:43:16.413Z,9.78
2019-06-07T07:44:21.241Z,10.35
2019-06-07T07:45:25.473Z,9.93
2019-06-07T07:46:30.484Z,10.08
2019-06-07T07:47:34.892Z,8.80
2019-06-07T07:48:39.738Z,10.00
2019-06-07T07:49:44.732Z,9.53
2019-06-07T07:50:54.440Z,8.23
2019-06-07T07:51:58.717Z,7.95
2019-06-07T07:53:02.556Z,10.93
2019-06-07T07:54:10.854Z,10.08
2019-06-07T07:55:13.386Z,9.55
2019-06-07T07:56:17.776Z,9.33
2019-06-07T07:57:22.597Z,9.30
2019-06-07T07:58:26.849Z,9.70
2019-06-07T07:59:41.972Z,9.58
2019-06-07T08:01:09.027Z,9.25
2019-06-07T08:01:46.103Z,9.00
2019-06-07T08:02:53.161Z,10.35
2019-06-07T08:03:57.409Z,7.47
2019-06-07T08:05:25.681Z,9.83
2019-06-07T08:06:09.306Z,10.32
2019-06-07T08:07:13.541Z,11.00
2019-06-07T08:08:18.377Z,10.13
2019-06-07T08:09:22.639Z,9.50
2019-06-07T08:10:27.429Z,10.60
2019-06-07T08:11:31.651Z,10.48
2019-06-07T08:12:55.613Z,9.63
2019-06-07T08:13:42.395Z,9.85
2019-06-07T08:14:47.790Z,7.85
2019-06-07T08:15:57.084Z,8.28
2019-06-07T08:16:59.342Z,8.85
2019-06-07T08:18:04.660Z,8.73
2019-06-07T08:19:09.785Z,8.38
2019-06-07T08:20:14.005Z,8.73
2019-06-07T08:21:25.327Z,9.20
2019-06-07T08:22:24.676Z,9.00
2019-06-07T08:23:29.519Z,8.93
2019-06-07T08:24:33.757Z,8.05
2019-06-07T08:25:38.581Z,8.43
2019-06-07T08:26:42.812Z,8.43
2019-06-07T08:27:47.611Z,8.45
2019-06-07T08:28:55.894Z,7.17
2019-06-07T08:30:15.673Z,8.00
2019-06-07T08:31:07.202Z,7.37
2019-06-07T08:32:10.667Z,8.03
2019-06-07T08:33:26.070Z,7.25
2019-06-07T08:34:21.365Z,7.87
2019-06-07T08:36:41.858Z,7.67
2019-06-07T08:38:47.926Z,7.97
2019-06-07T08:39:52.180Z,7.87
2019-06-07T08:41:04.623Z,8.88
2019-06-07T08:42:15.456Z,8.23
2019-06-07T08:43:19.931Z,8.65
2019-06-07T08:44:23.313Z,8.28
2019-06-07T08:45:21.504Z,8.13
2019-06-07T08:46:25.782Z,7.75
2019-06-07T08:47:30.588Z,8.88
2019-06-07T08:48:34.823Z,7.67
2019-06-07T08:49:39.696Z,8.60
2019-06-07T08:50:43.925Z,9.25
2019-06-07T08:51:48.735Z,8.55
2019-06-07T08:52:56.352Z,9.40
2019-06-07T08:54:20.573Z,9.65
2019-06-07T08:55:06.174Z,10.30
2019-06-07T08:56:11.707Z,10.53
2019-06-07T08:57:21.135Z,10.35
2019-06-07T08:58:22.567Z,9.93
2019-06-07T08:59:26.921Z,9.03
2019-06-07T09:00:47.988Z,9.53
2019-06-07T09:01:37.611Z,9.35
2019-06-07T09:02:42.413Z,9.10
2019-06-07T09:03:46.680Z,9.38
2019-06-07T09:04:54.788Z,9.15
2019-06-07T09:06:06.158Z,8.10
2019-06-07T09:07:18.136Z,8.20
2019-06-07T09:08:28.321Z,8.98
2019-06-07T09:09:16.177Z,8.85
2019-06-07T09:10:20.441Z,8.40
2019-06-07T09:11:25.413Z,7.62
2019-06-07T09:12:29.772Z,8.70
2019-06-07T09:13:34.586Z,8.20
2019-06-07T09:14:58.881Z,8.83
2019-06-07T09:15:45.287Z,8.23
2019-06-07T09:16:49.548Z,10.35
2019-06-07T09:18:34.907Z,10.25
2019-06-07T09:19:03.936Z,9.33
2019-06-07T09:20:29.297Z,9.55
2019-06-07T09:21:12.668Z,9.48
2019-06-07T09:22:17.549Z,7.70
2019-06-07T09:23:21.767Z,9.70
2019-06-07T09:24:26.574Z,8.78
2019-06-07T09:25:30.832Z,8.45
2019-06-07T09:26:35.642Z,8.03
2019-06-07T09:27:39.887Z,9.33
2019-06-07T09:28:44.690Z,9.03
2019-06-07T09:29:48.908Z,8.85
2019-06-07T09:30:53.740Z,8.70
2019-06-07T09:32:00.603Z,9.55
2019-06-07T09:33:06.698Z,8.43
2019-06-07T09:34:14.327Z,9.08
2019-06-07T09:35:17.810Z,8.18
2019-06-07T09:36:22.236Z,8.90
2019-06-07T09:38:32.998Z,8.28
2019-06-07T09:39:37.891Z,8.38
2019-06-07T09:40:42.152Z,9.50
2019-06-07T09:41:50.072Z,9.13
2019-06-07T09:43:38.549Z,8.63
2019-06-07T09:44:13.033Z,8.28
2019-06-07T09:45:08.735Z,8.85
2019-06-07T09:46:15.656Z,8.78
2019-06-07T09:47:31.171Z,8.58
2019-06-07T09:49:09.098Z,8.60
2019-06-07T09:49:32.490Z,8.55
2019-06-07T09:50:36.778Z,8.10
2019-06-07T09:51:41.000Z,7.97
2019-06-07T09:52:58.031Z,7.47
2019-06-07T09:53:51.688Z,8.53
2019-06-07T09:55:12.003Z,8.33
2019-06-07T09:56:05.736Z,8.80
2019-06-07T09:57:16.780Z,8.38
2019-06-07T09:58:50.478Z,8.20
2019-06-07T09:59:21.184Z,7.97
2019-06-07T10:00:42.682Z,8.90
2019-06-07T10:01:31.892Z,8.63
2019-06-07T10:02:36.140Z,8.08
2019-06-07T10:03:40.944Z,8.48
2019-06-07T10:04:45.159Z,8.03
2019-06-07T10:05:49.955Z,8.00
2019-06-07T10:06:54.235Z,7.67
2019-06-07T10:08:11.054Z,7.60
2019-06-07T10:11:18.222Z,8.43
2019-06-07T10:12:23.041Z,10.15
2019-06-07T10:13:27.251Z,7.78
2019-06-07T10:14:32.072Z,8.40
2019-06-07T10:15:36.330Z,9.25
2019-06-07T10:16:47.165Z,7.85
2019-06-07T10:17:47.044Z,8.95
2019-06-07T10:18:51.884Z,7.85
2019-06-07T10:19:56.118Z,8.20
2019-06-07T10:21:01.409Z,8.63
2019-06-07T10:22:06.022Z,7.22
2019-06-07T10:23:11.276Z,7.40
2019-06-07T10:24:15.504Z,6.67
2019-06-07T10:25:20.316Z,7.37
2019-06-07T10:26:24.568Z,6.33
2019-06-07T10:27:29.373Z,7.10
2019-06-07T10:28:33.602Z,6.90
2019-06-07T10:29:38.412Z,7.45
2019-06-07T10:30:42.637Z,7.80
2019-06-07T10:31:47.463Z,6.83
2019-06-07T10:32:52.327Z,7.90
2019-06-07T10:33:57.232Z,7.22
2019-06-07T10:35:03.070Z,7.20
2019-06-07T10:36:08.667Z,7.47
2019-06-07T10:37:15.660Z,7.28
2019-06-07T10:38:19.543Z,6.85
2019-06-07T10:39:23.763Z,6.03
2019-06-07T10:40:28.583Z,7.90
2019-06-07T10:41:32.826Z,8.35
2019-06-07T10:42:37.707Z,7.37
2019-06-07T10:43:41.933Z,7.50
2019-06-07T10:44:46.741Z,9.03
2019-06-07T10:45:51.008Z,7.67
2019-06-07T10:46:59.064Z,7.15
2019-06-07T10:48:01.671Z,7.75
2019-06-07T10:49:07.876Z,7.22
2019-06-07T10:50:12.720Z,7.03
2019-06-07T10:51:17.868Z,7.17
2019-06-07T10:52:22.195Z,7.12
2019-06-07T10:53:27.008Z,7.70
2019-06-07T10:54:31.228Z,6.55
2019-06-07T10:55:36.035Z,6.92
2019-06-07T10:56:40.260Z,7.20
2019-06-07T10:57:45.176Z,6.30
2019-06-07T10:58:49.541Z,6.62
2019-06-07T10:59:54.373Z,6.90
2019-06-07T11:00:58.592Z,6.62
2019-06-07T11:02:03.520Z,6.20
2019-06-07T11:03:08.036Z,6.40
2019-06-07T11:04:13.793Z,6.62
2019-06-07T11:05:18.130Z,7.40
2019-06-07T11:06:22.944Z,7.05
2019-06-07T11:07:27.341Z,6.78
2019-06-07T11:08:32.172Z,5.83
2019-06-07T11:09:36.451Z,7.03
2019-06-07T11:10:41.300Z,6.87
2019-06-07T11:11:45.576Z,8.38
2019-06-07T11:12:50.408Z,7.83
2019-06-07T11:13:54.637Z,7.62
2019-06-07T11:14:59.473Z,8.00
2019-06-07T11:16:04.731Z,8.25
2019-06-07T11:17:11.168Z,7.70
2019-06-07T11:18:15.656Z,6.58
2019-06-07T11:19:20.458Z,8.35
2019-06-07T11:20:24.687Z,8.05
2019-06-07T11:21:29.497Z,7.65
2019-06-07T11:22:33.821Z,7.65
2019-06-07T11:23:38.630Z,7.17
2019-06-07T11:24:42.885Z,6.20
2019-06-07T11:25:47.693Z,7.58
2019-06-07T11:26:51.933Z,7.10
2019-06-07T11:27:56.901Z,8.10
2019-06-07T11:29:01.091Z,8.00
2019-06-07T11:30:06.798Z,6.45
2019-06-07T11:31:11.430Z,6.65
2019-06-07T11:32:16.872Z,5.83
2019-06-07T11:33:21.127Z,7.17
2019-06-07T11:34:25.952Z,7.17
2019-06-07T11:35:30.184Z,10.43
2019-06-07T11:36:35.011Z,9.68
2019-06-07T11:37:39.289Z,9.03
2019-06-07T11:38:44.143Z,14.20
2019-06-07T11:39:48.397Z,8.90
2019-06-07T11:40:53.195Z,7.55
2019-06-07T11:41:57.425Z,21.68
2019-06-07T11:43:02.381Z,6.47
2019-06-07T11:44:06.719Z,9.20
2019-06-07T11:45:13.002Z,8.90
2019-06-07T11:46:17.379Z,23.77
2019-06-07T11:47:22.241Z,8.53
2019-06-07T11:48:26.524Z,9.68
2019-06-07T11:49:31.337Z,15.05
2019-06-07T11:50:35.583Z,15.28
2019-06-07T11:51:40.469Z,7.20
2019-06-07T11:52:46.479Z,13.28
2019-06-07T11:53:51.080Z,14.28
2019-06-07T11:54:55.313Z,11.38
2019-06-07T11:56:00.129Z,8.38
2019-06-07T11:57:05.206Z,8.73
2019-06-07T11:58:14.576Z,11.93
2019-06-07T11:59:17.342Z,15.50
2019-06-07T12:00:22.259Z,9.28
2019-06-07T12:01:26.484Z,7.33
2019-06-07T12:02:31.314Z,16.17
2019-06-07T12:03:35.596Z,6.87
2019-06-07T12:04:40.411Z,14.03
2019-06-07T12:05:44.669Z,7.70
2019-06-07T12:06:49.535Z,7.58
2019-06-07T12:07:57.049Z,6.92
2019-06-07T12:09:00.801Z,8.95
2019-06-07T12:10:05.484Z,6.95
2019-06-07T12:11:10.296Z,6.58
2019-06-07T12:12:14.606Z,7.10
2019-06-07T12:13:19.471Z,12.43
2019-06-07T12:14:23.691Z,8.85
2019-06-07T12:15:28.532Z,10.68
2019-06-07T12:16:32.793Z,5.55
2019-06-07T12:17:37.687Z,16.37
2019-06-07T12:18:41.964Z,5.50
2019-06-07T12:19:46.792Z,8.90
2019-06-07T12:20:51.025Z,9.70
2019-06-07T12:23:20.178Z,6.72
2019-06-07T12:24:25.104Z,7.55
2019-06-07T12:25:29.332Z,6.17
2019-06-07T12:26:34.131Z,6.25
2019-06-07T12:27:38.365Z,6.30
2019-06-07T12:28:43.205Z,5.67
2019-06-07T12:29:47.417Z,5.40
2019-06-07T12:30:55.094Z,6.42
2019-06-07T12:31:58.189Z,7.22
2019-06-07T12:33:03.009Z,6.35
2019-06-07T12:34:07.257Z,12.20
2019-06-07T12:35:13.507Z,5.85
2019-06-07T12:36:17.864Z,6.20
2019-06-07T12:37:39.267Z,4.30
2019-06-07T12:38:29.041Z,4.10
2019-06-07T12:39:33.873Z,4.17
2019-06-07T12:40:38.096Z,8.85
2019-06-07T12:41:42.912Z,6.95
2019-06-07T12:42:47.137Z,4.47
2019-06-07T12:43:51.980Z,7.53
2019-06-07T12:44:56.261Z,9.98
2019-06-07T12:46:01.080Z,5.65
2019-06-07T12:47:05.305Z,5.87
2019-06-07T12:48:10.139Z,6.03
2019-06-07T12:49:14.981Z,4.03
2019-06-07T12:50:21.536Z,7.35
2019-06-07T12:51:25.897Z,13.78
2019-06-07T12:52:30.756Z,5.58
2019-06-07T12:53:35.162Z,5.28
2019-06-07T12:54:39.964Z,8.13
2019-06-07T12:55:44.314Z,5.60
2019-06-07T12:56:52.218Z,4.47
2019-06-07T12:57:55.103Z,3.87
2019-06-07T12:58:59.930Z,10.75
2019-06-07T13:00:04.530Z,5.75
2019-06-07T13:01:09.493Z,5.12
2019-06-07T13:02:14.210Z,5.08
2019-06-07T13:03:20.851Z,3.30
2019-06-07T13:04:25.164Z,4.50
2019-06-07T13:05:30.076Z,3.20
2019-06-07T13:06:34.306Z,4.53
2019-06-07T13:07:38.489Z,4.80
2019-06-07T13:08:42.715Z,8.43
2019-06-07T13:09:47.564Z,13.15
2019-06-07T13:10:51.784Z,4.65
2019-06-07T13:11:56.691Z,24.87
2019-06-07T13:13:00.979Z,14.28
2019-06-07T13:14:05.812Z,7.97
2019-06-07T13:15:10.128Z,10.82
2019-06-07T13:16:16.306Z,6.00
2019-06-07T13:17:22.202Z,7.42
2019-06-07T13:18:28.430Z,4.10
2019-06-07T13:19:32.881Z,3.17
2019-06-07T13:20:37.716Z,2.92
2019-06-07T13:21:41.924Z,4.22
2019-06-07T13:22:46.728Z,3.12
2019-06-07T13:23:50.953Z,19.95
2019-06-07T13:24:59.250Z,6.53
2019-06-07T13:26:01.712Z,7.50
2019-06-07T13:27:06.593Z,9.23
2019-06-07T13:28:10.867Z,12.13
2019-06-07T13:29:16.395Z,3.42
2019-06-07T13:30:21.095Z,5.92
2019-06-07T13:31:27.256Z,4.72
2019-06-07T13:32:31.630Z,4.65
2019-06-07T13:33:38.793Z,2.90
2019-06-07T13:34:42.309Z,3.90
2019-06-07T13:35:47.157Z,4.92
2019-06-07T13:36:51.368Z,4.20
2019-06-07T13:37:59.414Z,7.00
2019-06-07T13:39:02.132Z,4.05
2019-06-07T13:40:06.967Z,8.80
2019-06-07T13:41:11.212Z,5.87
2019-06-07T13:42:16.419Z,6.08
2019-06-07T13:43:21.441Z,3.20
2019-06-07T13:44:26.366Z,3.77
2019-06-07T13:45:30.586Z,5.40
2019-06-07T13:46:35.521Z,5.75
2019-06-07T13:47:39.779Z,5.15
2019-06-07T13:48:44.622Z,3.70
2019-06-07T13:49:48.840Z,5.05
2019-06-07T13:50:53.683Z,7.35
2019-06-07T13:51:57.976Z,6.83
2019-06-07T13:53:02.776Z,2.60
2019-06-07T13:54:07.040Z,2.55
2019-06-07T13:55:11.841Z,2.55
2019-06-07T13:56:16.095Z,3.42
2019-06-07T13:57:22.241Z,9.40
2019-06-07T13:58:26.722Z,4.03
2019-06-07T13:59:31.527Z,3.58
2019-06-07T14:00:35.767Z,3.22
2019-06-07T14:01:40.609Z,2.35
2019-06-07T14:02:44.859Z,18.45
2019-06-07T14:03:49.648Z,4.95
2019-06-07T14:04:53.900Z,2.50
2019-06-07T14:05:58.700Z,3.70
2019-06-07T14:07:02.951Z,5.67
2019-06-07T14:08:07.765Z,7.28
2019-06-07T14:09:12.016Z,2.40
2019-06-07T14:10:16.929Z,2.60
2019-06-07T14:11:21.481Z,5.25
2019-06-07T14:12:27.749Z,3.10
2019-06-07T14:13:32.138Z,2.83
2019-06-07T14:14:37.009Z,3.90
2019-06-07T14:15:41.257Z,2.62
2019-06-07T14:16:46.115Z,4.20
2019-06-07T14:17:50.413Z,4.53
2019-06-07T14:18:55.209Z,6.95
2019-06-07T14:19:59.876Z,3.37
2019-06-07T14:21:04.688Z,4.92
2019-06-07T14:22:09.690Z,5.00
2019-06-07T14:23:14.575Z,3.17
2019-06-07T14:24:18.907Z,5.30
2019-06-07T14:25:25.057Z,3.83